Time;durP1;ratioP1;P1;durP2;ratioP2;P2;SDS_P1;SDS_P2;PMS_P1;PMS_P2;Temp;Humidity;BMP_temperature;BMP_pressure;BME280_temperature;BME280_humidity;BME280_pressure;Samples;Min_cycle;Max_cycle;Signal;HPM_P1;HPM_P2
2023/10/14 00:02:03;;;;;;;4.22;2.47;;;;;;;;;;5103847;28;42798;-73
2023/10/14 00:04:31;;;;;;;4.57;3.00;;;;;;;;;;5098136;28;40285;-73
2023/10/14 00:07:05;;;;;;;4.55;2.80;;;;;;;;;;5104839;28;41520;-73
2023/10/14 00:09:43;;;;;;;4.78;3.47;;;;;;;;;;5095802;28;40111;-73
2023/10/14 00:12:14;;;;;;;4.13;2.47;;;;;;;;;;5101464;28;41404;-73
2023/10/14 00:14:43;;;;;;;5.18;2.70;;;;;;;;;;5099404;28;41996;-73
2023/10/14 00:17:16;;;;;;;4.63;2.42;;;;;;;;;;5104105;28;41136;-73
2023/10/14 00:19:46;;;;;;;3.50;2.00;;;;;;;;;;5098931;28;42679;-73
2023/10/14 00:22:14;;;;;;;3.30;2.53;;;;;;;;;;5106232;28;42602;-73
2023/10/14 00:24:43;;;;;;;3.33;2.33;;;;;;;;;;5105345;28;40352;-73
2023/10/14 00:27:11;;;;;;;3.25;2.03;;;;;;;;;;5106348;28;40950;-73
2023/10/14 00:29:39;;;;;;;4.05;2.28;;;;;;;;;;5101473;28;40270;-73
2023/10/14 00:32:07;;;;;;;4.43;3.03;;;;;;;;;;5106349;28;40973;-73
2023/10/14 00:34:36;;;;;;;3.20;2.85;;;;;;;;;;5103296;28;41948;-73
2023/10/14 00:37:08;;;;;;;4.50;2.65;;;;;;;;;;5104807;28;40167;-73
2023/10/14 00:39:36;;;;;;;3.28;2.20;;;;;;;;;;5102834;28;42744;-73
2023/10/14 00:42:07;;;;;;;2.92;1.98;;;;;;;;;;5104975;28;43093;-73
2023/10/14 00:44:38;;;;;;;3.88;2.50;;;;;;;;;;5097625;27;39602;-73
2023/10/14 00:47:09;;;;;;;2.92;2.35;;;;;;;;;;5104553;28;41861;-73
2023/10/14 00:49:43;;;;;;;2.97;1.92;;;;;;;;;;5104162;28;41414;-73
2023/10/14 00:52:18;;;;;;;3.00;2.40;;;;;;;;;;5106135;27;40777;-73
2023/10/14 00:54:58;;;;;;;7.05;2.00;;;;;;;;;;5105273;28;42018;-73
2023/10/14 00:57:37;;;;;;;4.30;2.58;;;;;;;;;;5107173;27;40525;-73
2023/10/14 01:00:09;;;;;;;3.80;2.38;;;;;;;;;;5107121;28;41708;-74
2023/10/14 01:02:38;;;;;;;2.53;2.10;;;;;;;;;;5103417;28;43152;-72
2023/10/14 01:05:13;;;;;;;3.80;2.42;;;;;;;;;;5105715;28;39367;-73
2023/10/14 01:07:41;;;;;;;2.97;2.60;;;;;;;;;;5104311;28;42646;-73
2023/10/14 01:10:12;;;;;;;3.25;2.55;;;;;;;;;;5105807;27;41894;-72
2023/10/14 01:12:44;;;;;;;3.33;2.25;;;;;;;;;;5106015;27;39799;-73
2023/10/14 01:15:19;;;;;;;2.53;2.13;;;;;;;;;;5107245;27;40829;-73
2023/10/14 01:17:47;;;;;;;2.42;2.17;;;;;;;;;;5105920;27;40583;-73
2023/10/14 01:20:28;;;;;;;2.35;1.98;;;;;;;;;;5102190;28;40259;-73
2023/10/14 01:22:58;;;;;;;3.15;2.10;;;;;;;;;;5107328;28;42684;-73
2023/10/14 01:25:29;;;;;;;3.47;2.15;;;;;;;;;;5108234;27;39246;-73
2023/10/14 01:27:59;;;;;;;3.33;1.80;;;;;;;;;;5104130;28;41373;-73
2023/10/14 01:30:37;;;;;;;2.88;2.00;;;;;;;;;;5107853;28;41345;-73
2023/10/14 01:33:12;;;;;;;2.15;1.75;;;;;;;;;;5103384;28;40995;-73
2023/10/14 01:35:43;;;;;;;5.20;1.95;;;;;;;;;;5103796;28;40707;-73
2023/10/14 01:38:13;;;;;;;3.15;2.10;;;;;;;;;;5107633;28;40271;-73
2023/10/14 01:40:48;;;;;;;2.00;1.80;;;;;;;;;;5108807;28;41074;-73
2023/10/14 01:43:16;;;;;;;5.47;1.90;;;;;;;;;;5106247;28;40431;-73
2023/10/14 01:45:59;;;;;;;3.33;1.98;;;;;;;;;;5104791;28;40545;-73
2023/10/14 01:48:30;;;;;;;1.80;1.60;;;;;;;;;;5104158;28;41190;-73
2023/10/14 01:50:58;;;;;;;3.00;1.75;;;;;;;;;;5098369;27;43103;-73
2023/10/14 01:53:30;;;;;;;2.38;1.45;;;;;;;;;;5108828;28;41245;-73
2023/10/14 01:56:00;;;;;;;2.63;1.90;;;;;;;;;;5095995;27;40101;-73
2023/10/14 01:58:33;;;;;;;3.75;1.40;;;;;;;;;;5107163;27;42201;-73
2023/10/14 02:01:07;;;;;;;3.60;1.50;;;;;;;;;;5104301;27;40707;-73
2023/10/14 02:03:41;;;;;;;2.45;1.67;;;;;;;;;;5096897;28;40799;-73
2023/10/14 02:06:16;;;;;;;2.03;1.45;;;;;;;;;;5099548;28;40910;-73
2023/10/14 02:08:46;;;;;;;2.88;1.98;;;;;;;;;;5103579;28;40498;-73
2023/10/14 02:11:16;;;;;;;1.80;1.48;;;;;;;;;;5105816;28;41262;-73
2023/10/14 02:13:44;;;;;;;2.38;1.52;;;;;;;;;;5101482;28;40095;-73
2023/10/14 02:16:12;;;;;;;2.67;1.60;;;;;;;;;;5105668;27;41228;-73
2023/10/14 02:18:40;;;;;;;1.70;1.40;;;;;;;;;;5104308;28;40566;-72
2023/10/14 02:21:11;;;;;;;1.88;1.40;;;;;;;;;;5102858;28;40340;-73
2023/10/14 02:23:47;;;;;;;1.65;1.15;;;;;;;;;;5097852;28;42112;-73
2023/10/14 02:26:21;;;;;;;2.55;1.55;;;;;;;;;;5102523;28;39838;-73
2023/10/14 02:28:51;;;;;;;2.40;1.58;;;;;;;;;;5094016;28;41441;-73
2023/10/14 02:31:28;;;;;;;1.80;1.40;;;;;;;;;;5096488;28;43140;-73
2023/10/14 02:33:57;;;;;;;4.78;1.30;;;;;;;;;;5100467;28;40130;-73
2023/10/14 02:36:29;;;;;;;2.28;1.50;;;;;;;;;;5103973;27;41605;-73
2023/10/14 02:38:57;;;;;;;1.30;1.10;;;;;;;;;;5104776;28;42412;-73
2023/10/14 02:41:29;;;;;;;4.07;1.27;;;;;;;;;;5101290;28;39879;-73
2023/10/14 02:44:18;;;;;;;2.38;1.50;;;;;;;;;;5104448;28;41622;-73
2023/10/14 02:46:47;;;;;;;3.05;1.40;;;;;;;;;;5105438;28;38245;-73
2023/10/14 02:49:15;;;;;;;1.20;1.05;;;;;;;;;;5105641;28;41221;-73
2023/10/14 02:51:43;;;;;;;1.90;1.58;;;;;;;;;;5099885;28;41831;-71
2023/10/14 02:54:26;;;;;;;2.90;1.50;;;;;;;;;;5105258;28;39055;-72
2023/10/14 02:56:59;;;;;;;2.22;1.50;;;;;;;;;;5100267;28;42528;-72
2023/10/14 02:59:38;;;;;;;2.08;1.20;;;;;;;;;;5102721;28;41418;-71
2023/10/14 03:02:14;;;;;;;2.30;1.38;;;;;;;;;;5105743;28;40119;-72
2023/10/14 03:04:48;;;;;;;3.17;1.23;;;;;;;;;;5099329;27;41634;-72
2023/10/14 03:07:23;;;;;;;2.30;1.48;;;;;;;;;;5104001;28;39851;-71
2023/10/14 03:09:52;;;;;;;1.38;0.95;;;;;;;;;;5103295;27;40004;-72
2023/10/14 03:12:23;;;;;;;1.67;1.25;;;;;;;;;;5104970;27;42294;-72
2023/10/14 03:14:52;;;;;;;3.85;1.30;;;;;;;;;;5101573;27;41255;-72
2023/10/14 03:17:24;;;;;;;2.30;1.30;;;;;;;;;;5107662;28;42583;-72
2023/10/14 03:19:54;;;;;;;1.90;1.10;;;;;;;;;;5103206;28;42228;-72
2023/10/14 03:22:26;;;;;;;2.85;1.40;;;;;;;;;;5104773;28;40899;-72
2023/10/14 03:25:04;;;;;;;2.50;1.40;;;;;;;;;;5103865;28;41561;-72
2023/10/14 03:27:34;;;;;;;2.42;1.10;;;;;;;;;;5098010;27;41197;-72
2023/10/14 03:30:02;;;;;;;2.55;1.20;;;;;;;;;;5103656;28;41370;-72
2023/10/14 03:32:33;;;;;;;3.17;1.33;;;;;;;;;;5105879;28;41675;-72
2023/10/14 03:35:09;;;;;;;2.38;1.40;;;;;;;;;;5104955;28;41065;-72
2023/10/14 03:37:40;;;;;;;2.25;1.40;;;;;;;;;;5107280;27;42557;-72
2023/10/14 03:43:05;;;;;;;2.33;1.10;;;;;;;;;;5103425;28;40979;-72
2023/10/14 03:45:33;;;;;;;2.95;1.20;;;;;;;;;;5097628;28;41587;-72
2023/10/14 03:48:08;;;;;;;1.92;0.85;;;;;;;;;;5104740;27;41510;-72
2023/10/14 03:50:38;;;;;;;2.35;1.15;;;;;;;;;;5105390;28;38140;-72
2023/10/14 03:53:06;;;;;;;1.80;1.10;;;;;;;;;;5107072;28;42789;-72
2023/10/14 03:55:35;;;;;;;3.60;1.55;;;;;;;;;;5104449;27;40405;-72
2023/10/14 03:58:04;;;;;;;1.92;1.08;;;;;;;;;;5106565;28;42504;-72
2023/10/14 04:00:37;;;;;;;2.42;0.93;;;;;;;;;;5099193;28;42097;-72
2023/10/14 04:03:11;;;;;;;3.42;1.20;;;;;;;;;;5101270;28;40213;-72
2023/10/14 04:05:41;;;;;;;5.65;1.25;;;;;;;;;;5103811;27;41327;-72
2023/10/14 04:08:13;;;;;;;2.67;1.10;;;;;;;;;;5100615;27;42935;-72
2023/10/14 04:10:54;;;;;;;2.80;1.10;;;;;;;;;;5093962;28;40170;-72
2023/10/14 04:13:25;;;;;;;2.83;1.10;;;;;;;;;;5103968;28;41639;-72
2023/10/14 04:15:53;;;;;;;4.00;0.98;;;;;;;;;;5102588;28;40432;-72
2023/10/14 04:18:25;;;;;;;3.08;1.10;;;;;;;;;;5107357;28;41093;-72
2023/10/14 04:21:13;;;;;;;1.67;1.00;;;;;;;;;;5099906;28;41652;-72
2023/10/14 04:23:59;;;;;;;1.92;0.82;;;;;;;;;;5103131;28;39805;-72
2023/10/14 04:26:31;;;;;;;3.03;1.52;;;;;;;;;;5103404;28;41296;-72
2023/10/14 04:29:02;;;;;;;5.55;1.70;;;;;;;;;;5095512;27;42752;-72
2023/10/14 04:31:39;;;;;;;2.65;1.02;;;;;;;;;;5103946;28;41159;-72
2023/10/14 04:34:09;;;;;;;3.28;1.40;;;;;;;;;;5103279;27;41061;-72
2023/10/14 04:36:39;;;;;;;2.33;1.00;;;;;;;;;;5107461;28;20323;-72
2023/10/14 04:39:14;;;;;;;1.55;0.90;;;;;;;;;;5103539;28;41471;-72
2023/10/14 04:41:55;;;;;;;0.90;0.80;;;;;;;;;;5104716;28;42147;-72
2023/10/14 04:44:33;;;;;;;4.05;1.00;;;;;;;;;;5100708;28;41301;-72
2023/10/14 04:47:04;;;;;;;3.15;1.13;;;;;;;;;;5095403;28;41581;-72
2023/10/14 04:49:41;;;;;;;1.77;0.85;;;;;;;;;;5094247;28;41903;-72
2023/10/14 04:52:09;;;;;;;2.17;1.02;;;;;;;;;;5094056;28;40264;-72
2023/10/14 04:54:51;;;;;;;2.67;1.05;;;;;;;;;;5099099;28;42555;-72
2023/10/14 04:57:23;;;;;;;4.80;1.45;;;;;;;;;;5095226;27;42329;-72
2023/10/14 04:59:55;;;;;;;6.88;1.60;;;;;;;;;;5090345;28;41713;-72
2023/10/14 05:02:24;;;;;;;2.83;1.15;;;;;;;;;;5102217;28;41995;-72
2023/10/14 05:04:52;;;;;;;5.60;1.20;;;;;;;;;;5093769;27;41351;-72
2023/10/14 05:07:20;;;;;;;9.45;1.38;;;;;;;;;;5101503;28;41609;-72
2023/10/14 05:09:59;;;;;;;4.60;1.30;;;;;;;;;;5101184;28;43254;-72
2023/10/14 05:12:27;;;;;;;11.18;1.30;;;;;;;;;;5101147;27;39742;-72
2023/10/14 05:14:56;;;;;;;12.43;1.95;;;;;;;;;;5105518;28;43211;-72
2023/10/14 05:17:27;;;;;;;10.05;1.80;;;;;;;;;;5104770;27;41958;-73
2023/10/14 05:19:59;;;;;;;7.88;1.23;;;;;;;;;;5100982;28;39912;-73
2023/10/14 05:22:37;;;;;;;5.90;1.42;;;;;;;;;;5097276;27;42696;-73
2023/10/14 05:25:09;;;;;;;8.63;1.42;;;;;;;;;;5099448;27;40158;-73
2023/10/14 05:27:46;;;;;;;8.95;1.38;;;;;;;;;;5100644;27;40646;-73
2023/10/14 05:30:21;;;;;;;20.42;1.73;;;;;;;;;;5094291;27;42428;-73
2023/10/14 05:32:51;;;;;;;37.17;2.25;;;;;;;;;;5096460;28;39742;-72
2023/10/14 05:35:22;;;;;;;22.70;1.80;;;;;;;;;;5097912;28;41357;-72
2023/10/14 05:37:50;;;;;;;23.40;2.10;;;;;;;;;;5099039;28;42899;-72
2023/10/14 05:40:21;;;;;;;35.20;2.60;;;;;;;;;;5107468;27;40230;-72
2023/10/14 05:42:50;;;;;;;30.90;2.80;;;;;;;;;;5106139;27;42236;-72
2023/10/14 05:45:21;;;;;;;10.57;1.50;;;;;;;;;;5100915;27;39686;-71
2023/10/14 05:47:49;;;;;;;21.00;2.20;;;;;;;;;;5095066;27;42560;-71
2023/10/14 05:50:17;;;;;;;16.55;2.13;;;;;;;;;;5107465;28;42549;-72
2023/10/14 05:52:46;;;;;;;31.88;2.35;;;;;;;;;;5103622;28;40406;-71
2023/10/14 05:55:19;;;;;;;16.23;1.65;;;;;;;;;;5105759;27;41562;-71
2023/10/14 05:57:49;;;;;;;25.95;2.20;;;;;;;;;;5093400;28;42781;-70
2023/10/14 06:00:25;;;;;;;18.00;2.20;;;;;;;;;;5102081;27;40272;-70
2023/10/14 06:02:55;;;;;;;24.42;2.67;;;;;;;;;;5098824;28;42335;-70
2023/10/14 06:05:23;;;;;;;25.05;2.92;;;;;;;;;;5104369;28;42539;-70
2023/10/14 06:07:59;;;;;;;19.13;2.05;;;;;;;;;;5101782;27;41606;-70
2023/10/14 06:10:29;;;;;;;9.82;1.63;;;;;;;;;;5101083;27;41704;-70
2023/10/14 06:12:57;;;;;;;9.07;1.90;;;;;;;;;;5100599;28;40286;-71
2023/10/14 06:15:25;;;;;;;11.95;1.92;;;;;;;;;;5099377;27;41696;-71
2023/10/14 06:17:55;;;;;;;9.23;1.48;;;;;;;;;;5103444;28;43276;-71
2023/10/14 06:20:23;;;;;;;17.27;1.85;;;;;;;;;;5105176;27;40240;-71
2023/10/14 06:22:57;;;;;;;16.08;1.85;;;;;;;;;;5097845;28;41185;-71
2023/10/14 06:25:24;;;;;;;9.80;1.42;;;;;;;;;;5103456;27;42655;-71
2023/10/14 06:27:53;;;;;;;13.65;1.83;;;;;;;;;;5103332;28;40622;-70
2023/10/14 06:30:22;;;;;;;7.65;1.75;;;;;;;;;;5104584;28;42840;-70
2023/10/14 06:32:52;;;;;;;11.07;1.63;;;;;;;;;;5104384;28;40529;-72
2023/10/14 06:35:22;;;;;;;6.65;1.80;;;;;;;;;;5099323;28;41142;-70
2023/10/14 06:37:50;;;;;;;7.80;1.50;;;;;;;;;;5105273;28;42818;-70
2023/10/14 06:40:19;;;;;;;7.18;1.60;;;;;;;;;;5107845;28;39673;-71
2023/10/14 06:42:50;;;;;;;13.27;1.80;;;;;;;;;;5106061;28;41726;-71
2023/10/14 06:45:22;;;;;;;7.55;1.55;;;;;;;;;;5106791;27;41928;-71
2023/10/14 06:47:57;;;;;;;7.97;1.63;;;;;;;;;;5104220;28;39901;-71
2023/10/14 06:50:26;;;;;;;13.32;1.52;;;;;;;;;;5091900;28;42266;-70
2023/10/14 06:52:58;;;;;;;10.50;1.75;;;;;;;;;;5102748;27;40044;-71
2023/10/14 06:55:27;;;;;;;7.13;1.95;;;;;;;;;;5095375;28;41575;-72
2023/10/14 06:57:55;;;;;;;9.27;1.40;;;;;;;;;;5099015;28;43202;-72
2023/10/14 07:00:29;;;;;;;10.50;1.75;;;;;;;;;;5106468;28;40356;-71
2023/10/14 07:02:59;;;;;;;10.57;1.50;;;;;;;;;;5105366;28;41539;-71
2023/10/14 07:05:29;;;;;;;5.65;1.10;;;;;;;;;;5104953;27;41999;-72
2023/10/14 07:07:58;;;;;;;5.03;1.40;;;;;;;;;;5107102;27;40999;-72
2023/10/14 07:10:32;;;;;;;5.68;1.58;;;;;;;;;;5101443;27;41505;-71
2023/10/14 07:13:00;;;;;;;12.35;1.90;;;;;;;;;;5104276;27;40559;-71
2023/10/14 07:15:30;;;;;;;6.38;1.38;;;;;;;;;;5101762;28;41165;-71
2023/10/14 07:17:59;;;;;;;6.43;1.80;;;;;;;;;;5105635;28;41520;-72
2023/10/14 07:20:29;;;;;;;7.85;1.90;;;;;;;;;;5101995;28;41487;-71
2023/10/14 07:22:58;;;;;;;6.15;1.60;;;;;;;;;;5104515;28;41517;-72
2023/10/14 07:25:26;;;;;;;4.07;1.30;;;;;;;;;;5099434;27;41953;-71
2023/10/14 07:27:59;;;;;;;6.38;1.40;;;;;;;;;;5102943;28;41381;-71
2023/10/14 07:30:28;;;;;;;18.00;2.35;;;;;;;;;;5100987;28;41940;-71
2023/10/14 07:32:56;;;;;;;8.75;1.70;;;;;;;;;;5101964;28;42879;-71
2023/10/14 07:35:25;;;;;;;10.02;1.92;;;;;;;;;;5097322;28;41002;-71
2023/10/14 07:37:54;;;;;;;11.93;1.75;;;;;;;;;;5103170;28;43249;-71
2023/10/14 07:40:27;;;;;;;16.65;1.65;;;;;;;;;;5105575;27;40282;-71
2023/10/14 07:42:56;;;;;;;9.77;1.42;;;;;;;;;;5105248;28;42487;-71
2023/10/14 07:45:28;;;;;;;14.88;1.92;;;;;;;;;;5104959;28;42015;-72
2023/10/14 07:47:57;;;;;;;13.38;1.70;;;;;;;;;;5103724;27;40409;-72
2023/10/14 07:50:25;;;;;;;5.82;1.50;;;;;;;;;;5104068;27;42103;-72
2023/10/14 07:52:54;;;;;;;8.85;1.80;;;;;;;;;;5106094;28;42649;-72
2023/10/14 07:55:25;;;;;;;9.20;1.77;;;;;;;;;;5106082;28;40207;-71
2023/10/14 07:57:55;;;;;;;18.95;1.95;;;;;;;;;;5097429;28;41529;-71
2023/10/14 08:00:36;;;;;;;10.63;1.80;;;;;;;;;;5100122;27;40522;-72
2023/10/14 08:03:06;;;;;;;5.82;1.60;;;;;;;;;;5093841;28;41669;-72
2023/10/14 08:05:35;;;;;;;13.40;1.95;;;;;;;;;;5099338;28;41457;-73
2023/10/14 08:08:06;;;;;;;8.20;1.67;;;;;;;;;;5104827;28;40955;-72
2023/10/14 08:10:35;;;;;;;6.15;1.90;;;;;;;;;;5097316;28;40982;-72
2023/10/14 08:13:04;;;;;;;6.55;1.40;;;;;;;;;;5097560;27;42181;-72
2023/10/14 08:15:33;;;;;;;10.60;1.55;;;;;;;;;;5098375;27;39302;-72
2023/10/14 08:18:01;;;;;;;14.98;1.83;;;;;;;;;;5102409;27;41789;-72
2023/10/14 08:20:31;;;;;;;7.80;1.58;;;;;;;;;;5100509;27;40418;-72
2023/10/14 08:22:58;;;;;;;6.50;1.80;;;;;;;;;;5104143;27;41252;-72
2023/10/14 08:25:28;;;;;;;11.98;1.55;;;;;;;;;;5102212;27;40696;-72
2023/10/14 08:28:00;;;;;;;6.53;1.50;;;;;;;;;;5105170;27;39775;-72
2023/10/14 08:30:32;;;;;;;11.25;1.73;;;;;;;;;;5099838;28;43069;-72
2023/10/14 08:33:01;;;;;;;9.55;1.70;;;;;;;;;;5101732;28;42914;-72
2023/10/14 08:35:29;;;;;;;8.38;1.85;;;;;;;;;;5097258;27;42913;-73
2023/10/14 08:37:58;;;;;;;6.93;1.50;;;;;;;;;;5101866;28;42419;-73
2023/10/14 08:40:26;;;;;;;8.05;1.20;;;;;;;;;;5098497;28;43125;-73
2023/10/14 08:42:55;;;;;;;11.43;2.20;;;;;;;;;;5103391;28;41908;-72
2023/10/14 08:45:26;;;;;;;7.82;1.55;;;;;;;;;;5095723;28;43145;-73
2023/10/14 08:47:55;;;;;;;7.63;1.40;;;;;;;;;;5098329;28;41422;-72
2023/10/14 08:50:24;;;;;;;7.18;1.67;;;;;;;;;;5096906;28;40988;-72
2023/10/14 08:52:53;;;;;;;14.73;1.40;;;;;;;;;;5104528;28;42753;-72
2023/10/14 08:55:21;;;;;;;4.88;1.35;;;;;;;;;;5099625;28;40150;-72
2023/10/14 08:57:50;;;;;;;9.68;1.98;;;;;;;;;;5096384;27;41166;-72
2023/10/14 09:00:23;;;;;;;8.55;1.20;;;;;;;;;;5097568;28;43248;-72
2023/10/14 09:02:54;;;;;;;7.78;1.60;;;;;;;;;;5095901;27;42037;-72
2023/10/14 09:05:22;;;;;;;5.43;1.08;;;;;;;;;;5100663;28;42058;-72
2023/10/14 09:07:51;;;;;;;5.53;1.58;;;;;;;;;;5092863;28;39782;-72
2023/10/14 09:10:19;;;;;;;6.47;1.33;;;;;;;;;;5098424;28;41751;-72
2023/10/14 09:12:55;;;;;;;13.23;1.58;;;;;;;;;;5099092;27;41880;-72
2023/10/14 09:15:23;;;;;;;6.30;1.60;;;;;;;;;;5100744;28;40646;-72
2023/10/14 09:17:51;;;;;;;6.25;1.13;;;;;;;;;;5102440;27;42625;-72
2023/10/14 09:20:28;;;;;;;7.13;1.73;;;;;;;;;;5106808;28;42037;-72
2023/10/14 09:23:14;;;;;;;7.78;1.48;;;;;;;;;;5099404;28;40723;-72
2023/10/14 09:25:43;;;;;;;3.83;1.15;;;;;;;;;;5095280;27;42538;-72
2023/10/14 09:28:11;;;;;;;6.97;1.20;;;;;;;;;;5105467;28;40857;-72
2023/10/14 09:30:44;;;;;;;8.32;1.70;;;;;;;;;;5105389;28;42533;-72
2023/10/14 09:33:15;;;;;;;8.10;1.60;;;;;;;;;;5105102;27;41949;-72
2023/10/14 09:35:51;;;;;;;6.57;1.55;;;;;;;;;;5102642;28;40617;-72
2023/10/14 09:38:19;;;;;;;3.67;1.40;;;;;;;;;;5103900;28;41641;-72
2023/10/14 09:40:50;;;;;;;8.10;2.10;;;;;;;;;;5101985;27;42586;-72
2023/10/14 09:43:18;;;;;;;5.20;1.40;;;;;;;;;;5104913;28;41556;-72
2023/10/14 09:45:47;;;;;;;7.90;1.67;;;;;;;;;;5095298;27;41142;-72
2023/10/14 09:48:18;;;;;;;7.57;1.42;;;;;;;;;;5097613;28;39504;-72
2023/10/14 09:50:47;;;;;;;8.80;1.80;;;;;;;;;;5102668;28;40254;-72
2023/10/14 09:53:16;;;;;;;8.30;1.95;;;;;;;;;;5104566;28;41270;-72
2023/10/14 09:55:44;;;;;;;8.82;1.38;;;;;;;;;;5099026;27;39997;-72
2023/10/14 09:58:13;;;;;;;4.88;1.27;;;;;;;;;;5101352;28;41434;-72
2023/10/14 10:00:41;;;;;;;8.70;1.52;;;;;;;;;;5103241;28;41702;-71
2023/10/14 10:03:09;;;;;;;6.70;1.23;;;;;;;;;;5099817;28;39958;-72
2023/10/14 10:05:40;;;;;;;9.35;1.50;;;;;;;;;;5102076;28;41297;-72
2023/10/14 10:08:22;;;;;;;12.90;2.05;;;;;;;;;;5095551;28;41718;-72
2023/10/14 10:10:51;;;;;;;18.42;1.75;;;;;;;;;;5103639;28;42093;-72
2023/10/14 10:13:23;;;;;;;10.60;1.40;;;;;;;;;;5100936;28;42642;-72
2023/10/14 10:15:51;;;;;;;11.68;1.98;;;;;;;;;;5100228;27;41410;-72
2023/10/14 10:18:22;;;;;;;6.85;1.77;;;;;;;;;;5106751;27;41487;-72
2023/10/14 10:20:54;;;;;;;10.50;1.73;;;;;;;;;;5098129;28;40348;-72
2023/10/14 10:23:25;;;;;;;6.80;1.70;;;;;;;;;;5103812;27;41315;-72
2023/10/14 10:25:53;;;;;;;8.98;1.40;;;;;;;;;;5095840;27;41868;-72
2023/10/14 10:28:36;;;;;;;6.38;1.40;;;;;;;;;;5097339;28;41183;-72
2023/10/14 10:31:07;;;;;;;6.80;1.52;;;;;;;;;;5094835;28;41044;-72
2023/10/14 10:33:46;;;;;;;12.18;1.30;;;;;;;;;;5135500;27;42489;-72
2023/10/14 10:36:14;;;;;;;9.88;2.17;;;;;;;;;;5091683;27;40436;-72
2023/10/14 10:38:43;;;;;;;11.70;1.80;;;;;;;;;;5099516;27;41705;-72
2023/10/14 10:41:17;;;;;;;20.58;2.00;;;;;;;;;;5100716;27;42852;-71
2023/10/14 10:43:46;;;;;;;19.27;2.58;;;;;;;;;;5105256;28;40547;-69
2023/10/14 10:46:38;;;;;;;37.00;2.50;;;;;;;;;;5102157;27;40503;-72
2023/10/14 10:49:11;;;;;;;26.33;2.70;;;;;;;;;;5103009;27;42838;-70
2023/10/14 10:51:42;;;;;;;26.23;2.90;;;;;;;;;;5097559;28;40316;-70
2023/10/14 10:54:12;;;;;;;20.88;3.15;;;;;;;;;;5106995;28;42533;-71
2023/10/14 10:56:41;;;;;;;21.48;2.20;;;;;;;;;;5100041;27;40269;-71
2023/10/14 10:59:20;;;;;;;19.60;2.05;;;;;;;;;;5097040;28;42203;-70
2023/10/14 11:01:48;;;;;;;29.60;2.47;;;;;;;;;;5103010;28;42346;-71
2023/10/14 11:04:17;;;;;;;30.83;2.67;;;;;;;;;;5099322;28;40506;-72
2023/10/14 11:06:45;;;;;;;17.55;2.10;;;;;;;;;;5104422;28;41158;-71
2023/10/14 11:09:14;;;;;;;17.90;2.72;;;;;;;;;;5100307;27;42784;-72
2023/10/14 11:11:42;;;;;;;22.90;2.63;;;;;;;;;;5107693;28;41399;-72
2023/10/14 11:14:15;;;;;;;24.23;2.50;;;;;;;;;;5102002;28;42011;-72
2023/10/14 11:16:44;;;;;;;24.30;2.20;;;;;;;;;;5096272;28;40203;-71
2023/10/14 11:19:12;;;;;;;19.48;2.10;;;;;;;;;;5094711;28;42686;-72
2023/10/14 11:21:40;;;;;;;13.38;2.80;;;;;;;;;;5100249;28;42479;-72
2023/10/14 11:24:08;;;;;;;20.90;2.53;;;;;;;;;;5103893;28;40941;-72
2023/10/14 11:26:38;;;;;;;10.98;1.95;;;;;;;;;;5100580;28;42909;-72
2023/10/14 11:29:07;;;;;;;20.17;3.00;;;;;;;;;;5101543;28;43095;-72
2023/10/14 11:31:36;;;;;;;13.27;2.15;;;;;;;;;;5103065;27;40967;-72
2023/10/14 11:34:04;;;;;;;25.48;2.45;;;;;;;;;;5101848;27;42053;-72
2023/10/14 11:36:32;;;;;;;8.95;1.88;;;;;;;;;;5103251;28;42264;-72
2023/10/14 11:39:03;;;;;;;20.77;2.15;;;;;;;;;;5100395;27;41508;-72
2023/10/14 11:41:32;;;;;;;30.27;3.40;;;;;;;;;;5104611;27;41646;-72
2023/10/14 11:44:04;;;;;;;9.77;2.13;;;;;;;;;;5100212;28;39816;-72
2023/10/14 11:46:36;;;;;;;12.80;2.17;;;;;;;;;;5095494;27;40087;-73
2023/10/14 11:49:05;;;;;;;12.48;2.08;;;;;;;;;;5101962;28;42253;-73
2023/10/14 11:51:37;;;;;;;16.52;2.33;;;;;;;;;;5097377;27;40261;-73
2023/10/14 11:54:05;;;;;;;10.77;1.70;;;;;;;;;;5095755;28;42551;-72
2023/10/14 11:56:34;;;;;;;12.82;1.67;;;;;;;;;;5095462;28;41100;-73
2023/10/14 11:59:04;;;;;;;33.05;2.22;;;;;;;;;;5102434;28;38388;-76
2023/10/14 12:01:34;;;;;;;24.55;2.40;;;;;;;;;;5103399;28;42655;-75
2023/10/14 12:04:02;;;;;;;47.47;3.22;;;;;;;;;;5101814;28;41222;-73
2023/10/14 12:06:34;;;;;;;34.97;3.03;;;;;;;;;;5101728;28;41272;-73
2023/10/14 12:09:05;;;;;;;29.83;2.30;;;;;;;;;;5101090;28;43333;-71
2023/10/14 12:11:39;;;;;;;29.10;2.13;;;;;;;;;;5100302;27;41348;-72
2023/10/14 12:14:11;;;;;;;33.10;2.30;;;;;;;;;;5096946;28;43418;-72
2023/10/14 12:16:40;;;;;;;23.35;2.13;;;;;;;;;;5099939;27;42459;-71
2023/10/14 12:19:11;;;;;;;14.90;1.65;;;;;;;;;;5096594;28;40495;-72
2023/10/14 12:21:41;;;;;;;14.70;1.70;;;;;;;;;;5099009;27;41125;-71
2023/10/14 12:24:10;;;;;;;21.30;2.08;;;;;;;;;;5104823;28;41383;-73
2023/10/14 12:26:43;;;;;;;15.90;1.38;;;;;;;;;;5106624;28;41724;-73
2023/10/14 12:29:13;;;;;;;18.05;1.50;;;;;;;;;;5093342;28;42199;-73
2023/10/14 12:31:44;;;;;;;8.50;1.38;;;;;;;;;;5102249;28;40536;-74
2023/10/14 12:34:14;;;;;;;7.85;1.30;;;;;;;;;;5095598;28;42215;-72
2023/10/14 12:36:42;;;;;;;11.20;1.80;;;;;;;;;;5105778;28;41985;-72
2023/10/14 12:39:19;;;;;;;9.85;1.52;;;;;;;;;;5104804;27;39864;-73
2023/10/14 12:41:49;;;;;;;10.73;1.30;;;;;;;;;;5097667;28;41406;-72
2023/10/14 12:44:20;;;;;;;5.75;1.50;;;;;;;;;;5101174;28;42266;-73
2023/10/14 12:46:48;;;;;;;13.95;1.70;;;;;;;;;;5097343;27;41653;-73
2023/10/14 12:49:19;;;;;;;10.95;1.50;;;;;;;;;;5100864;28;42184;-70
2023/10/14 12:51:48;;;;;;;12.88;1.35;;;;;;;;;;5098697;27;39765;-75
2023/10/14 12:54:17;;;;;;;11.48;1.52;;;;;;;;;;5104388;28;42695;-71
2023/10/14 12:56:46;;;;;;;11.20;1.80;;;;;;;;;;5103144;28;42816;-71
2023/10/14 12:59:14;;;;;;;15.35;1.90;;;;;;;;;;5099869;27;41285;-70
2023/10/14 13:01:46;;;;;;;13.77;1.65;;;;;;;;;;5103425;28;41200;-74
2023/10/14 13:04:19;;;;;;;14.38;1.67;;;;;;;;;;5098960;28;42584;-73
2023/10/14 13:06:49;;;;;;;18.35;1.30;;;;;;;;;;5099439;28;40041;-73
2023/10/14 13:09:19;;;;;;;11.75;1.50;;;;;;;;;;5104480;28;42225;-73
2023/10/14 13:11:47;;;;;;;16.13;1.60;;;;;;;;;;5101885;28;40626;-73
2023/10/14 13:14:25;;;;;;;19.00;1.20;;;;;;;;;;5097671;28;40431;-72
2023/10/14 13:16:58;;;;;;;15.38;1.63;;;;;;;;;;5100076;28;42088;-72
2023/10/14 13:19:32;;;;;;;13.98;1.65;;;;;;;;;;5100777;27;40338;-72
2023/10/14 13:22:02;;;;;;;8.30;1.17;;;;;;;;;;5096866;28;41486;-73
2023/10/14 13:24:31;;;;;;;9.57;1.30;;;;;;;;;;5103871;27;40875;-73
2023/10/14 13:26:59;;;;;;;13.15;1.00;;;;;;;;;;5106497;28;40070;-74
2023/10/14 13:29:27;;;;;;;5.40;0.90;;;;;;;;;;5103549;27;42670;-73
2023/10/14 13:31:57;;;;;;;3.08;1.00;;;;;;;;;;5102274;28;40904;-73
2023/10/14 13:34:25;;;;;;;7.05;1.35;;;;;;;;;;5097279;28;41187;-73
2023/10/14 13:36:53;;;;;;;6.28;1.65;;;;;;;;;;5103428;28;41468;-72
2023/10/14 13:39:29;;;;;;;4.45;1.08;;;;;;;;;;5099684;28;40656;-73
2023/10/14 13:42:03;;;;;;;8.15;1.23;;;;;;;;;;5099356;28;41169;-73
2023/10/14 13:44:31;;;;;;;8.48;1.20;;;;;;;;;;5099286;27;41811;-73
2023/10/14 13:47:04;;;;;;;13.77;1.20;;;;;;;;;;5099551;28;39321;-73
2023/10/14 13:49:33;;;;;;;9.93;0.90;;;;;;;;;;5102862;27;42471;-73
2023/10/14 13:52:03;;;;;;;13.75;1.17;;;;;;;;;;5093516;28;39662;-73
2023/10/14 13:54:32;;;;;;;5.40;0.88;;;;;;;;;;5099074;27;41736;-70
2023/10/14 13:57:00;;;;;;;14.32;1.73;;;;;;;;;;5101553;28;41786;-73
2023/10/14 13:59:28;;;;;;;14.60;1.67;;;;;;;;;;5098985;28;40971;-72
2023/10/14 14:01:56;;;;;;;8.02;1.33;;;;;;;;;;5104814;27;41416;-73
2023/10/14 14:04:25;;;;;;;12.77;1.63;;;;;;;;;;5099819;28;41945;-71
2023/10/14 14:06:54;;;;;;;15.55;1.50;;;;;;;;;;5103493;27;40730;-70
2023/10/14 14:09:22;;;;;;;12.73;0.90;;;;;;;;;;5104669;28;41778;-73
2023/10/14 14:11:55;;;;;;;19.33;1.50;;;;;;;;;;5100845;27;43125;-73
2023/10/14 14:14:24;;;;;;;49.08;2.53;;;;;;;;;;5103908;28;42168;-74
2023/10/14 14:16:52;;;;;;;40.75;1.95;;;;;;;;;;5100964;28;42021;-73
2023/10/14 14:19:21;;;;;;;14.35;1.30;;;;;;;;;;5100568;28;40467;-72
2023/10/14 14:21:51;;;;;;;21.38;1.65;;;;;;;;;;5101657;27;41542;-71
2023/10/14 14:24:22;;;;;;;19.27;1.85;;;;;;;;;;5096498;28;43744;-71
2023/10/14 14:26:50;;;;;;;19.35;1.27;;;;;;;;;;5101986;28;39080;-71
2023/10/14 14:29:18;;;;;;;23.23;2.33;;;;;;;;;;5105109;27;42852;-71
2023/10/14 14:31:46;;;;;;;12.20;1.65;;;;;;;;;;5102231;28;42655;-71
2023/10/14 14:34:15;;;;;;;16.20;1.65;;;;;;;;;;5103275;28;38081;-71
2023/10/14 14:36:44;;;;;;;21.38;1.52;;;;;;;;;;5105406;28;42628;-71
2023/10/14 14:39:15;;;;;;;18.52;1.90;;;;;;;;;;5098663;27;40149;-71
2023/10/14 14:41:44;;;;;;;14.60;1.92;;;;;;;;;;5099755;27;42278;-70
2023/10/14 14:44:13;;;;;;;17.83;1.95;;;;;;;;;;5101884;28;42099;-71
2023/10/14 14:46:41;;;;;;;17.92;2.03;;;;;;;;;;5098118;27;40979;-71
2023/10/14 14:49:12;;;;;;;15.02;1.75;;;;;;;;;;5105182;27;41639;-71
2023/10/14 14:51:42;;;;;;;10.63;2.17;;;;;;;;;;5098695;28;42062;-72
2023/10/14 14:54:10;;;;;;;10.88;1.65;;;;;;;;;;5102655;27;40092;-73
2023/10/14 14:56:39;;;;;;;16.67;1.70;;;;;;;;;;5097147;28;41161;-75
2023/10/14 14:59:13;;;;;;;13.70;1.42;;;;;;;;;;5104274;28;41115;-74
2023/10/14 15:01:41;;;;;;;12.30;1.80;;;;;;;;;;5100801;28;41611;-74
2023/10/14 15:04:10;;;;;;;16.73;1.70;;;;;;;;;;5106141;28;41959;-73